createdAt,value
2018-06-03T00:02:26.706Z,17.90
2018-06-03T00:04:55.203Z,17.90
2018-06-03T00:07:23.730Z,18.00
2018-06-03T00:09:52.332Z,18.00
2018-06-03T00:12:20.922Z,18.00
2018-06-03T00:14:49.405Z,18.00
2018-06-03T00:17:18.079Z,18.00
2018-06-03T00:19:46.618Z,18.00
2018-06-03T00:22:23.006Z,18.00
2018-06-03T00:24:51.534Z,18.00
2018-06-03T00:27:20.030Z,18.00
2018-06-03T00:29:48.511Z,18.00
2018-06-03T00:32:17.005Z,18.00
2018-06-03T00:34:45.583Z,17.90
2018-06-03T00:37:14.835Z,18.00
2018-06-03T00:39:43.466Z,18.00
2018-06-03T00:42:12.011Z,17.90
2018-06-03T00:44:40.522Z,17.90
2018-06-03T00:47:09.044Z,17.90
2018-06-03T00:49:37.559Z,17.80
2018-06-03T00:52:06.146Z,17.80
2018-06-03T00:54:35.457Z,17.80
2018-06-03T00:57:09.706Z,17.80
2018-06-03T00:59:38.654Z,17.70
2018-06-03T01:02:07.393Z,17.70
2018-06-03T01:04:35.980Z,17.70
2018-06-03T01:07:04.453Z,17.60
2018-06-03T01:09:33.073Z,17.60
2018-06-03T01:12:01.586Z,17.50
2018-06-03T01:14:30.092Z,17.50
2018-06-03T01:16:58.618Z,17.50
2018-06-03T01:21:55.357Z,17.40
2018-06-03T01:24:23.838Z,17.40
2018-06-03T01:26:52.351Z,17.30
2018-06-03T01:29:20.867Z,17.40
2018-06-03T01:31:49.385Z,17.30
2018-06-03T01:34:17.867Z,17.30
2018-06-03T01:36:46.334Z,17.30
2018-06-03T01:39:14.862Z,17.30
2018-06-03T01:41:43.335Z,17.30
2018-06-03T01:46:40.067Z,17.20
2018-06-03T01:49:08.578Z,17.20
2018-06-03T01:51:37.142Z,17.20
2018-06-03T01:54:05.698Z,17.10
2018-06-03T01:56:34.215Z,17.10
2018-06-03T01:59:02.768Z,17.10
2018-06-03T02:01:31.329Z,17.00
2018-06-03T02:03:59.802Z,17.10
2018-06-03T02:06:28.326Z,17.00
2018-06-03T02:08:56.798Z,17.00
2018-06-03T02:11:25.311Z,17.00
2018-06-03T02:13:53.850Z,17.00
2018-06-03T02:16:22.341Z,17.00
2018-06-03T02:18:50.831Z,17.00
2018-06-03T02:21:19.355Z,17.00
2018-06-03T02:23:47.968Z,17.00
2018-06-03T02:28:44.638Z,17.00
2018-06-03T02:31:13.170Z,17.00
2018-06-03T02:33:41.726Z,16.90
2018-06-03T02:36:10.233Z,16.90
2018-06-03T02:38:38.735Z,17.00
2018-06-03T02:41:07.268Z,16.90
2018-06-03T02:43:35.794Z,17.00
2018-06-03T02:46:04.310Z,16.90
2018-06-03T02:48:32.838Z,17.00
2018-06-03T02:51:01.326Z,17.00
2018-06-03T02:53:29.811Z,17.00
2018-06-03T02:55:59.142Z,16.90
2018-06-03T02:58:27.637Z,16.90
2018-06-03T03:00:56.120Z,16.90
2018-06-03T03:05:52.890Z,17.00
2018-06-03T03:10:49.605Z,16.90
2018-06-03T03:13:18.118Z,16.90
2018-06-03T03:15:46.716Z,16.90
2018-06-03T03:18:15.209Z,16.90
2018-06-03T03:20:43.789Z,16.90
2018-06-03T03:25:40.431Z,16.90
2018-06-03T03:28:08.981Z,16.80
2018-06-03T03:30:37.553Z,16.90
2018-06-03T03:33:06.103Z,16.90
2018-06-03T03:35:34.674Z,16.80
2018-06-03T03:40:31.507Z,16.80
2018-06-03T03:43:00.057Z,16.70
2018-06-03T03:45:28.567Z,16.70
2018-06-03T03:47:57.142Z,16.70
2018-06-03T03:50:25.816Z,16.60
2018-06-03T03:52:54.339Z,16.60
2018-06-03T03:55:22.930Z,16.60
2018-06-03T03:57:51.476Z,16.60
2018-06-03T04:00:20.013Z,16.50
2018-06-03T04:05:16.767Z,16.40
2018-06-03T04:07:45.335Z,16.40
2018-06-03T04:10:13.882Z,16.40
2018-06-03T04:12:42.366Z,16.40
2018-06-03T04:15:10.906Z,16.40
2018-06-03T04:20:07.610Z,16.50
2018-06-03T04:22:36.138Z,16.50
2018-06-03T04:25:04.630Z,16.50
2018-06-03T04:27:33.202Z,16.50
2018-06-03T04:30:01.748Z,16.60
2018-06-03T04:32:30.242Z,16.60
2018-06-03T04:34:58.735Z,16.60
2018-06-03T04:37:27.359Z,16.60
2018-06-03T04:39:55.857Z,16.70
2018-06-03T04:42:24.658Z,16.70
2018-06-03T04:44:53.208Z,16.70
2018-06-03T04:47:21.747Z,16.80
2018-06-03T04:49:50.250Z,16.80
2018-06-03T04:52:18.728Z,16.80
2018-06-03T04:54:47.217Z,16.80
2018-06-03T04:57:15.721Z,16.80
2018-06-03T04:59:44.213Z,16.90
2018-06-03T05:04:41.052Z,16.90
2018-06-03T05:07:09.571Z,16.80
2018-06-03T05:09:38.114Z,16.80
2018-06-03T05:12:06.834Z,16.90
2018-06-03T05:14:35.337Z,16.90
2018-06-03T05:17:03.869Z,16.90
2018-06-03T05:19:32.415Z,17.00
2018-06-03T05:22:00.962Z,17.10
2018-06-03T05:24:29.573Z,17.20
2018-06-03T05:26:58.130Z,17.30
2018-06-03T05:29:26.666Z,17.30
2018-06-03T05:31:55.171Z,17.30
2018-06-03T05:34:23.729Z,17.30
2018-06-03T05:36:52.333Z,17.30
2018-06-03T05:39:20.873Z,17.50
2018-06-03T05:41:49.395Z,17.50
2018-06-03T05:44:17.922Z,17.70
2018-06-03T05:46:46.445Z,17.70
2018-06-03T05:49:15.231Z,17.70
2018-06-03T05:51:43.740Z,17.80
2018-06-03T05:54:12.832Z,17.90
2018-06-03T05:56:41.342Z,18.00
2018-06-03T05:59:09.889Z,18.10
2018-06-03T06:01:38.962Z,18.20
2018-06-03T06:04:07.551Z,18.40
2018-06-03T06:06:36.055Z,18.40
2018-06-03T06:09:06.584Z,18.50
2018-06-03T06:14:03.339Z,18.60
2018-06-03T06:16:31.849Z,18.60
2018-06-03T06:19:00.877Z,18.70
2018-06-03T06:21:29.357Z,18.60
2018-06-03T06:26:26.037Z,18.50
2018-06-03T06:28:54.571Z,18.30
2018-06-03T06:31:23.101Z,18.40
2018-06-03T06:33:51.697Z,18.40
2018-06-03T06:36:20.198Z,18.50
2018-06-03T06:38:48.701Z,18.50
2018-06-03T06:41:17.270Z,18.60
2018-06-03T06:43:45.810Z,18.60
2018-06-03T06:48:43.490Z,18.90
2018-06-03T06:51:11.968Z,19.00
2018-06-03T06:53:40.504Z,19.30
2018-06-03T06:56:09.344Z,19.30
2018-06-03T06:58:37.957Z,19.40
2018-06-03T07:01:06.574Z,19.40
2018-06-03T07:03:35.106Z,19.40
2018-06-03T07:06:03.575Z,19.40
2018-06-03T07:08:32.116Z,19.40
2018-06-03T07:11:00.721Z,19.40
2018-06-03T07:13:29.290Z,19.20
2018-06-03T07:15:57.822Z,19.30
2018-06-03T07:18:26.456Z,19.40
2018-06-03T07:20:55.537Z,19.50
2018-06-03T07:23:24.584Z,19.70
2018-06-03T07:25:53.819Z,20.00
2018-06-03T07:28:22.602Z,20.40
2018-06-03T07:30:51.158Z,20.80
2018-06-03T07:33:19.662Z,21.20
2018-06-03T07:35:48.160Z,21.20
2018-06-03T07:40:45.547Z,21.30
2018-06-03T07:43:14.527Z,20.80
2018-06-03T07:45:43.183Z,20.50
2018-06-03T07:48:11.722Z,20.40
2018-06-03T07:50:40.254Z,20.10
2018-06-03T07:53:09.475Z,20.30
2018-06-03T07:55:37.989Z,20.40
2018-06-03T07:58:06.515Z,20.40
2018-06-03T08:00:35.025Z,20.50
2018-06-03T08:05:31.763Z,20.50
2018-06-03T08:08:01.082Z,20.70
2018-06-03T08:12:57.849Z,20.90
2018-06-03T08:17:55.178Z,22.20
2018-06-03T08:20:23.951Z,22.10
2018-06-03T08:22:52.480Z,21.90
2018-06-03T08:25:21.039Z,22.00
2018-06-03T08:27:49.563Z,22.00
2018-06-03T08:30:18.057Z,22.20
2018-06-03T08:32:46.627Z,22.50
2018-06-03T08:35:15.184Z,22.60
2018-06-03T08:37:43.711Z,22.60
2018-06-03T08:40:12.211Z,22.70
2018-06-03T08:42:41.606Z,23.50
2018-06-03T08:45:10.170Z,24.00
2018-06-03T08:50:06.994Z,25.00
2018-06-03T08:52:35.736Z,25.20
2018-06-03T08:55:04.634Z,24.60
2018-06-03T08:57:33.122Z,23.80
2018-06-03T09:00:01.660Z,23.30
2018-06-03T09:02:30.195Z,23.00
2018-06-03T09:04:58.746Z,23.00
2018-06-03T09:09:55.654Z,22.80
2018-06-03T09:12:24.150Z,22.90
2018-06-03T09:14:52.650Z,22.80
2018-06-03T09:17:21.202Z,22.90
2018-06-03T09:19:49.713Z,22.90
2018-06-03T09:22:18.367Z,22.90
2018-06-03T09:24:46.891Z,23.00
2018-06-03T09:27:15.667Z,23.00
2018-06-03T09:29:44.166Z,22.90
2018-06-03T09:32:12.735Z,23.00
2018-06-03T09:34:41.665Z,23.00
2018-06-03T09:37:10.185Z,22.90
2018-06-03T09:39:39.223Z,23.20
2018-06-03T09:42:07.769Z,23.30
2018-06-03T09:44:36.291Z,23.60
2018-06-03T09:47:04.853Z,24.30
2018-06-03T09:49:33.730Z,24.50
2018-06-03T09:52:02.267Z,24.40
2018-06-03T09:56:58.974Z,24.70
2018-06-03T09:59:27.544Z,25.20
2018-06-03T10:01:56.114Z,25.60
2018-06-03T10:06:52.873Z,26.40
2018-06-03T10:11:49.573Z,25.70
2018-06-03T10:14:18.107Z,25.50
2018-06-03T10:16:46.599Z,26.00
2018-06-03T10:19:15.685Z,25.80
2018-06-03T10:24:12.346Z,24.60
2018-06-03T10:26:40.906Z,24.60
2018-06-03T10:29:09.466Z,25.50
2018-06-03T10:31:37.959Z,26.30
2018-06-03T10:34:06.462Z,25.50
2018-06-03T10:36:34.983Z,25.90
2018-06-03T10:39:03.596Z,25.80
2018-06-03T10:41:32.129Z,26.10
2018-06-03T10:44:00.681Z,26.20
2018-06-03T10:46:29.191Z,27.00
2018-06-03T10:48:57.712Z,26.30
2018-06-03T10:51:26.455Z,26.20
2018-06-03T10:53:55.280Z,26.80
2018-06-03T10:56:23.779Z,26.80
2018-06-03T10:58:52.305Z,27.10
2018-06-03T11:01:21.001Z,27.60
2018-06-03T11:03:50.185Z,27.40
2018-06-03T11:06:18.739Z,27.30
2018-06-03T11:08:47.289Z,27.40
2018-06-03T11:13:44.051Z,27.20
2018-06-03T11:18:40.751Z,26.80
2018-06-03T11:21:09.361Z,26.80
2018-06-03T11:23:37.847Z,26.60
2018-06-03T11:26:06.367Z,26.50
2018-06-03T11:28:34.889Z,26.60
2018-06-03T11:31:03.387Z,26.90
2018-06-03T11:33:31.889Z,27.00
2018-06-03T11:36:00.367Z,27.10
2018-06-03T11:38:28.871Z,27.40
2018-06-03T11:40:57.433Z,27.50
2018-06-03T11:43:25.973Z,27.30
2018-06-03T11:45:55.094Z,27.90
2018-06-03T11:48:23.606Z,28.20
2018-06-03T11:50:52.113Z,28.60
2018-06-03T11:53:20.696Z,29.10
2018-06-03T11:55:49.271Z,29.20
2018-06-03T12:01:48.836Z,29.40
2018-06-03T12:04:17.375Z,29.20
2018-06-03T12:06:45.875Z,28.70
2018-06-03T12:09:14.539Z,28.70
2018-06-03T12:11:43.142Z,28.90
2018-06-03T12:16:39.974Z,29.90
2018-06-03T12:19:08.491Z,29.90
2018-06-03T12:21:37.649Z,29.50
2018-06-03T12:24:06.229Z,29.50
2018-06-03T12:26:34.722Z,29.80
2018-06-03T12:29:03.261Z,29.30
2018-06-03T12:31:31.843Z,28.60
2018-06-03T12:34:00.301Z,28.90
2018-06-03T12:36:28.843Z,29.40
2018-06-03T12:38:57.379Z,28.70
2018-06-03T12:41:25.977Z,28.60
2018-06-03T12:43:54.437Z,28.50
2018-06-03T12:46:22.986Z,28.10
2018-06-03T12:48:51.482Z,27.60
2018-06-03T12:51:19.998Z,27.20
2018-06-03T12:56:16.702Z,26.60
2018-06-03T12:58:45.205Z,26.40
2018-06-03T13:01:13.745Z,26.30
2018-06-03T13:03:42.256Z,26.30
2018-06-03T13:06:10.733Z,26.10
2018-06-03T13:08:39.310Z,25.70
2018-06-03T13:11:07.860Z,25.60
2018-06-03T13:13:36.379Z,25.60
2018-06-03T13:16:04.940Z,25.50
2018-06-03T13:18:33.605Z,25.60
2018-06-03T13:21:02.111Z,25.80
2018-06-03T13:23:30.665Z,25.90
2018-06-03T13:25:59.290Z,25.80
2018-06-03T13:28:27.809Z,25.80
2018-06-03T13:30:56.389Z,26.10
2018-06-03T13:33:24.981Z,26.10
2018-06-03T13:35:53.557Z,26.20
2018-06-03T13:38:22.122Z,26.20
2018-06-03T13:40:50.742Z,26.20
2018-06-03T13:43:19.334Z,26.20
2018-06-03T13:45:47.851Z,26.30
2018-06-03T13:48:16.431Z,26.30
2018-06-03T13:53:13.167Z,26.50
2018-06-03T13:55:41.761Z,26.50
2018-06-03T13:58:10.354Z,26.80
2018-06-03T14:00:38.901Z,27.00
2018-06-03T14:03:07.402Z,27.30
2018-06-03T14:05:35.903Z,27.50
2018-06-03T14:08:04.450Z,27.80
2018-06-03T14:10:32.956Z,27.70
2018-06-03T14:13:01.454Z,27.40
2018-06-03T14:15:30.018Z,27.50
2018-06-03T14:17:59.321Z,27.90
2018-06-03T14:20:27.841Z,28.10
2018-06-03T14:25:24.598Z,28.40
2018-06-03T14:27:53.177Z,28.60
2018-06-03T14:30:21.654Z,28.30
2018-06-03T14:32:50.153Z,28.00
2018-06-03T14:35:18.703Z,27.50
2018-06-03T14:37:47.300Z,27.00
2018-06-03T14:40:15.893Z,26.90
2018-06-03T14:42:44.354Z,26.70
2018-06-03T14:45:12.997Z,26.30
2018-06-03T14:47:41.508Z,26.20
2018-06-03T14:50:10.038Z,26.10
2018-06-03T14:52:38.560Z,26.10
2018-06-03T14:55:07.066Z,26.10
2018-06-03T14:57:35.607Z,26.00
2018-06-03T15:00:04.299Z,25.80
2018-06-03T15:02:32.811Z,25.90
2018-06-03T15:05:01.311Z,26.30
2018-06-03T15:07:29.789Z,26.40
2018-06-03T15:12:26.554Z,26.00
2018-06-03T15:17:23.355Z,26.00
2018-06-03T15:19:51.874Z,25.90
2018-06-03T15:22:20.482Z,25.90
2018-06-03T15:24:49.042Z,25.90
2018-06-03T15:27:17.730Z,25.90
2018-06-03T15:29:46.257Z,25.90
2018-06-03T15:32:14.797Z,26.20
2018-06-03T15:34:43.322Z,26.40
2018-06-03T15:37:11.930Z,26.70
2018-06-03T15:39:41.283Z,26.70
2018-06-03T15:42:09.853Z,26.70
2018-06-03T15:44:38.362Z,26.60
2018-06-03T15:47:06.864Z,26.60
2018-06-03T15:49:35.518Z,26.70
2018-06-03T15:52:04.067Z,26.60
2018-06-03T15:57:00.892Z,26.80
2018-06-03T16:01:57.731Z,26.40
2018-06-03T16:04:26.245Z,26.20
2018-06-03T16:06:54.777Z,26.00
2018-06-03T16:09:23.291Z,25.90
2018-06-03T16:11:51.827Z,25.80
2018-06-03T16:14:20.358Z,25.70
2018-06-03T16:16:48.869Z,25.60
2018-06-03T16:19:17.430Z,25.50
2018-06-03T16:21:45.989Z,25.40
2018-06-03T16:24:14.629Z,25.30
2018-06-03T16:26:43.118Z,25.30
2018-06-03T16:29:11.662Z,25.20
2018-06-03T16:31:40.216Z,25.20
2018-06-03T16:34:08.768Z,25.40
2018-06-03T16:36:37.296Z,25.50
2018-06-03T16:39:07.176Z,25.50
2018-06-03T16:41:35.734Z,25.60
2018-06-03T16:44:04.403Z,25.60
2018-06-03T16:46:32.930Z,25.60
2018-06-03T16:49:01.447Z,25.50
2018-06-03T16:51:30.096Z,25.30
2018-06-03T16:53:58.597Z,25.20
2018-06-03T16:56:27.133Z,25.20
2018-06-03T16:58:55.646Z,25.10
2018-06-03T17:01:24.126Z,25.10
2018-06-03T17:03:52.661Z,25.00
2018-06-03T17:06:21.813Z,25.00
2018-06-03T17:08:50.279Z,24.90
2018-06-03T17:11:18.794Z,24.90
2018-06-03T17:13:47.341Z,24.90
2018-06-03T17:18:45.110Z,25.00
2018-06-03T17:21:13.650Z,25.00
2018-06-03T17:23:42.250Z,24.90
2018-06-03T17:26:10.773Z,24.90
2018-06-03T17:28:39.394Z,24.90
2018-06-03T17:31:07.971Z,24.90
2018-06-03T17:33:36.499Z,24.80
2018-06-03T17:36:05.172Z,24.80
2018-06-03T17:38:33.760Z,24.70
2018-06-03T17:41:02.298Z,24.60
2018-06-03T17:43:30.910Z,24.60
2018-06-03T17:45:59.391Z,24.60
2018-06-03T17:50:56.106Z,24.50
2018-06-03T17:53:24.658Z,24.50
2018-06-03T17:55:53.347Z,24.40
2018-06-03T17:58:21.902Z,24.40
2018-06-03T18:00:50.434Z,24.30
2018-06-03T18:03:18.958Z,24.30
2018-06-03T18:05:47.534Z,24.20
2018-06-03T18:08:16.070Z,24.20
2018-06-03T18:10:44.567Z,24.10
2018-06-03T18:13:13.102Z,24.10
2018-06-03T18:18:09.964Z,24.10
2018-06-03T18:20:38.477Z,24.10
2018-06-03T18:23:07.047Z,24.00
2018-06-03T18:25:35.553Z,24.00
2018-06-03T18:28:04.086Z,24.00
2018-06-03T18:30:32.657Z,23.90
2018-06-03T18:33:01.207Z,23.90
2018-06-03T18:35:29.761Z,23.80
2018-06-03T18:40:26.515Z,23.90
2018-06-03T18:45:23.233Z,23.80
2018-06-03T18:47:51.750Z,23.70
2018-06-03T18:50:20.280Z,23.60
2018-06-03T18:52:48.762Z,23.50
2018-06-03T18:55:17.474Z,23.40
2018-06-03T18:57:46.053Z,23.30
2018-06-03T19:00:14.771Z,23.20
2018-06-03T19:05:12.579Z,23.00
2018-06-03T19:07:41.198Z,22.90
2018-06-03T19:10:09.820Z,22.90
2018-06-03T19:12:38.613Z,22.80
2018-06-03T19:15:07.394Z,22.80
2018-06-03T19:17:35.938Z,22.70
2018-06-03T19:20:04.565Z,22.60
2018-06-03T19:22:33.081Z,22.60
2018-06-03T19:25:01.699Z,22.50
2018-06-03T19:27:30.336Z,22.40
2018-06-03T19:29:58.835Z,22.40
2018-06-03T19:32:27.394Z,22.40
2018-06-03T19:34:55.946Z,22.40
2018-06-03T19:37:24.494Z,22.30
2018-06-03T19:39:53.101Z,22.10
2018-06-03T19:42:21.683Z,22.10
2018-06-03T19:44:50.261Z,22.00
2018-06-03T19:47:18.910Z,21.90
2018-06-03T19:52:16.042Z,21.80
2018-06-03T19:54:44.641Z,21.80
2018-06-03T19:57:13.161Z,21.70
2018-06-03T19:59:41.706Z,21.60
2018-06-03T20:02:10.192Z,21.60
2018-06-03T20:04:38.826Z,21.60
2018-06-03T20:09:35.544Z,21.50
2018-06-03T20:12:04.119Z,21.40
2018-06-03T20:14:32.680Z,21.30
2018-06-03T20:17:01.175Z,21.30
2018-06-03T20:19:29.726Z,21.30
2018-06-03T20:21:58.262Z,21.30
2018-06-03T20:24:26.779Z,21.20
2018-06-03T20:29:23.594Z,21.20
2018-06-03T20:31:52.193Z,21.00
2018-06-03T20:34:20.676Z,20.90
2018-06-03T20:36:49.965Z,20.90
2018-06-03T20:39:18.939Z,20.90
2018-06-03T20:41:47.658Z,20.80
2018-06-03T20:44:16.789Z,20.80
2018-06-03T20:46:45.334Z,20.70
2018-06-03T20:49:13.887Z,20.70
2018-06-03T20:51:42.404Z,20.60
2018-06-03T20:54:10.922Z,20.50
2018-06-03T20:56:39.460Z,20.50
2018-06-03T20:59:08.013Z,20.50
2018-06-03T21:01:36.650Z,20.40
2018-06-03T21:04:05.384Z,20.40
2018-06-03T21:06:33.923Z,20.40
2018-06-03T21:09:02.502Z,20.30
2018-06-03T21:11:31.003Z,20.30
2018-06-03T21:13:59.771Z,20.30
2018-06-03T21:16:28.321Z,20.20
2018-06-03T21:18:56.916Z,20.20
2018-06-03T21:21:25.397Z,20.10
2018-06-03T21:23:53.962Z,20.10
2018-06-03T21:26:22.443Z,20.10
2018-06-03T21:28:50.944Z,20.00
2018-06-03T21:31:19.464Z,19.90
2018-06-03T21:33:47.947Z,20.00
2018-06-03T21:36:16.465Z,19.90
2018-06-03T21:38:44.969Z,19.90
2018-06-03T21:41:13.537Z,19.90
2018-06-03T21:43:42.039Z,19.90
2018-06-03T21:46:10.550Z,19.90
2018-06-03T21:48:39.085Z,19.90
2018-06-03T21:53:35.742Z,19.80
2018-06-03T21:56:04.275Z,19.90
2018-06-03T21:58:32.826Z,19.80
2018-06-03T22:01:01.418Z,19.80
2018-06-03T22:03:29.946Z,19.80
2018-06-03T22:05:58.460Z,19.80
2018-06-03T22:08:27.855Z,19.70
2018-06-03T22:10:56.361Z,19.70
2018-06-03T22:13:24.852Z,19.70
2018-06-03T22:15:53.386Z,19.70
2018-06-03T22:18:21.895Z,19.70
2018-06-03T22:20:50.421Z,19.70
2018-06-03T22:23:18.942Z,19.70
2018-06-03T22:25:47.541Z,19.60
2018-06-03T22:28:16.422Z,19.60
2018-06-03T22:30:44.898Z,19.60
2018-06-03T22:33:13.497Z,19.60
2018-06-03T22:35:42.066Z,19.50
2018-06-03T22:38:10.611Z,19.60
2018-06-03T22:40:39.122Z,19.50
2018-06-03T22:43:07.648Z,19.50
2018-06-03T22:45:36.146Z,19.40
2018-06-03T22:48:04.689Z,19.40
2018-06-03T22:50:33.182Z,19.50
2018-06-03T22:53:01.694Z,19.40
2018-06-03T22:55:30.269Z,19.50
2018-06-03T23:00:31.051Z,19.40
2018-06-03T23:03:04.821Z,19.40
2018-06-03T23:05:33.505Z,19.40
2018-06-03T23:08:02.051Z,19.40
2018-06-03T23:10:30.616Z,19.30
2018-06-03T23:12:59.106Z,19.30
2018-06-03T23:15:27.588Z,19.30
2018-06-03T23:17:56.244Z,19.20
2018-06-03T23:20:25.464Z,19.20
2018-06-03T23:22:54.091Z,19.30
2018-06-03T23:25:22.571Z,19.20
2018-06-03T23:27:51.129Z,19.20
2018-06-03T23:30:19.791Z,19.20
2018-06-03T23:32:48.287Z,19.30
2018-06-03T23:35:16.818Z,19.20
2018-06-03T23:37:45.357Z,19.20
2018-06-03T23:40:13.860Z,19.20
2018-06-03T23:42:42.355Z,19.10
2018-06-03T23:45:10.878Z,19.10
2018-06-03T23:47:39.495Z,19.00
2018-06-03T23:50:08.069Z,19.00
2018-06-03T23:52:36.623Z,18.90
2018-06-03T23:55:05.155Z,18.90
2018-06-03T23:57:33.672Z,18.80
